Time;durP1;ratioP1;P1;durP2;ratioP2;P2;SDS_P1;SDS_P2;PMS_P1;PMS_P2;Temp;Humidity;BMP_temperature;BMP_pressure;BME280_temperature;BME280_humidity;BME280_pressure;Samples;Min_cycle;Max_cycle;Signal;HPM_P1;HPM_P2
2022/03/26 00:00:50;;;;;;;137.18;70.93;;;3.70;1.00;;;;;;5075260;28;20079;-77
2022/03/26 00:03:19;;;;;;;147.07;75.85;;;3.60;1.00;;;;;;5074516;28;20086;-76
2022/03/26 00:05:46;;;;;;;164.05;85.78;;;3.50;1.00;;;;;;5076390;28;20404;-77
2022/03/26 00:08:14;;;;;;;178.95;90.32;;;3.40;1.00;;;;;;5075509;28;20040;-76
2022/03/26 00:10:42;;;;;;;167.98;88.20;;;3.30;1.00;;;;;;5068138;28;20106;-77
2022/03/26 00:13:09;;;;;;;144.30;74.75;;;3.30;1.00;;;;;;5076561;28;20044;-77
2022/03/26 00:15:37;;;;;;;133.70;69.40;;;3.40;1.00;;;;;;5072786;28;20050;-75
2022/03/26 00:18:04;;;;;;;137.50;70.03;;;3.40;1.00;;;;;;5073998;28;20045;-76
2022/03/26 00:20:34;;;;;;;123.30;62.83;;;3.40;1.00;;;;;;5074908;28;20045;-77
2022/03/26 00:23:01;;;;;;;116.70;59.97;;;3.50;1.00;;;;;;5076146;28;20459;-77
2022/03/26 00:25:28;;;;;;;113.50;56.80;;;3.40;1.00;;;;;;5076384;28;20431;-76
2022/03/26 00:27:56;;;;;;;111.68;55.95;;;3.40;1.00;;;;;;5075168;28;20054;-77
2022/03/26 00:30:23;;;;;;;104.60;54.08;;;3.40;1.00;;;;;;5075500;28;20426;-76
2022/03/26 00:32:51;;;;;;;97.82;53.80;;;3.40;1.00;;;;;;5091559;28;20067;-76
2022/03/26 00:35:18;;;;;;;96.28;49.15;;;3.40;1.00;;;;;;5090186;28;20051;-77
2022/03/26 00:37:47;;;;;;;100.15;50.95;;;3.30;1.00;;;;;;5075994;28;20060;-77
2022/03/26 00:40:14;;;;;;;117.00;56.30;;;3.40;1.00;;;;;;5080887;28;20044;-77
2022/03/26 00:42:42;;;;;;;115.97;57.97;;;3.30;1.00;;;;;;5087142;28;20066;-77
2022/03/26 00:45:10;;;;;;;127.38;65.47;;;3.30;1.00;;;;;;5088645;28;20157;-76
2022/03/26 00:47:38;;;;;;;127.57;64.55;;;3.20;1.00;;;;;;5077148;28;20041;-78
2022/03/26 00:50:06;;;;;;;119.32;60.58;;;3.20;1.00;;;;;;5065503;28;20043;-77
2022/03/26 00:52:34;;;;;;;116.03;57.53;;;3.10;1.00;;;;;;5074747;28;20048;-76
2022/03/26 00:55:03;;;;;;;105.88;52.35;;;3.10;1.00;;;;;;5076228;28;20040;-77
2022/03/26 00:57:30;;;;;;;99.03;49.40;;;3.10;1.00;;;;;;5084598;28;20052;-76
2022/03/26 00:59:59;;;;;;;100.68;50.22;;;3.20;1.00;;;;;;5096730;28;20064;-77
2022/03/26 01:02:26;;;;;;;96.35;48.35;;;3.20;1.00;;;;;;5079618;28;20063;-75
2022/03/26 01:04:54;;;;;;;96.75;48.63;;;3.10;1.00;;;;;;5074925;28;20043;-76
2022/03/26 01:07:25;;;;;;;106.50;53.22;;;3.00;1.00;;;;;;5075787;28;20059;-77
2022/03/26 01:09:52;;;;;;;102.50;51.13;;;3.00;1.00;;;;;;5075877;28;20048;-75
2022/03/26 01:12:21;;;;;;;117.65;57.50;;;2.90;1.00;;;;;;5073733;28;20051;-76
2022/03/26 01:14:49;;;;;;;119.95;58.40;;;2.90;1.00;;;;;;5072732;28;20125;-77
2022/03/26 01:17:16;;;;;;;123.30;59.75;;;2.90;1.00;;;;;;5054702;28;20076;-76
2022/03/26 01:19:44;;;;;;;112.82;56.88;;;2.80;1.00;;;;;;5053980;28;20090;-76
2022/03/26 01:22:12;;;;;;;106.90;53.20;;;2.70;1.00;;;;;;5053692;28;20041;-77
2022/03/26 01:24:40;;;;;;;105.72;54.20;;;2.70;1.00;;;;;;5053184;28;20439;-77
2022/03/26 01:27:08;;;;;;;105.82;53.10;;;2.70;1.00;;;;;;5054861;28;20040;-77
2022/03/26 01:29:38;;;;;;;115.78;55.55;;;2.70;1.00;;;;;;5053576;28;20048;-76
2022/03/26 01:32:08;;;;;;;105.68;54.92;;;2.70;1.00;;;;;;5066702;28;20045;-77
2022/03/26 01:34:35;;;;;;;108.60;56.35;;;2.70;1.00;;;;;;5075096;28;20043;-76
2022/03/26 01:37:03;;;;;;;97.65;50.50;;;2.60;1.00;;;;;;5073506;28;20063;-77
2022/03/26 01:39:32;;;;;;;128.63;68.18;;;2.50;1.00;;;;;;5055706;28;20049;-77
2022/03/26 01:42:04;;;;;;;141.48;73.22;;;2.40;1.00;;;;;;5053912;28;20124;-78
2022/03/26 01:44:31;;;;;;;146.75;77.47;;;2.40;1.00;;;;;;5055681;28;20506;-77
2022/03/26 01:47:01;;;;;;;138.38;74.22;;;2.40;1.00;;;;;;5054672;28;20060;-75
2022/03/26 01:49:29;;;;;;;137.95;72.35;;;2.40;1.00;;;;;;5053258;28;20136;-77
2022/03/26 01:51:57;;;;;;;136.52;71.60;;;2.40;1.00;;;;;;5053600;28;20411;-77
2022/03/26 01:54:25;;;;;;;125.40;68.30;;;2.40;1.00;;;;;;5054624;28;20048;-77
2022/03/26 01:56:53;;;;;;;123.18;65.75;;;2.40;1.00;;;;;;5066972;28;20123;-77
2022/03/26 01:59:20;;;;;;;116.05;62.97;;;2.30;1.00;;;;;;5073782;28;20045;-77
2022/03/26 02:01:48;;;;;;;111.20;59.30;;;2.30;1.00;;;;;;5074776;28;20051;-77
2022/03/26 02:04:17;;;;;;;113.20;60.72;;;2.30;1.00;;;;;;5078003;28;20523;-77
2022/03/26 02:06:44;;;;;;;108.70;57.97;;;2.30;1.00;;;;;;5078370;28;20052;-77
2022/03/26 02:09:14;;;;;;;89.45;48.60;;;2.30;1.00;;;;;;5071878;28;20040;-76
2022/03/26 02:11:43;;;;;;;76.55;42.67;;;2.30;1.00;;;;;;5073699;28;20087;-77
2022/03/26 02:14:12;;;;;;;81.05;43.50;;;2.30;1.00;;;;;;5074123;28;20503;-76
2022/03/26 02:16:41;;;;;;;75.13;40.03;;;2.20;1.00;;;;;;5055135;28;20057;-77
2022/03/26 02:19:10;;;;;;;55.92;30.85;;;2.10;2.90;;;;;;5052811;28;20087;-76
2022/03/26 02:21:39;;;;;;;57.78;29.88;;;2.10;23.20;;;;;;5052620;28;20056;-77
2022/03/26 02:24:08;;;;;;;86.00;42.67;;;2.10;72.10;;;;;;5052774;28;20080;-76
2022/03/26 02:26:36;;;;;;;101.10;49.58;;;2.10;47.70;;;;;;5068699;28;20041;-76
2022/03/26 02:29:09;;;;;;;91.95;45.35;;;2.00;45.40;;;;;;5073577;28;20044;-77
2022/03/26 02:31:38;;;;;;;78.00;41.28;;;1.90;54.10;;;;;;5074353;28;20135;-77
2022/03/26 02:34:07;;;;;;;78.65;43.28;;;1.80;73.60;;;;;;5071874;28;20044;-77
2022/03/26 02:36:34;;;;;;;77.80;40.03;;;1.80;91.40;;;;;;5075069;28;20048;-78
2022/03/26 02:39:05;;;;;;;79.75;40.92;;;1.80;99.90;;;;;;5060406;28;20051;-77
2022/03/26 02:41:34;;;;;;;82.85;42.70;;;1.80;99.90;;;;;;5055802;28;20037;-77
2022/03/26 02:44:01;;;;;;;77.90;43.28;;;1.80;99.90;;;;;;5056055;28;20053;-77
2022/03/26 02:46:29;;;;;;;77.63;40.17;;;1.80;99.90;;;;;;5056805;28;20044;-78
2022/03/26 02:48:56;;;;;;;75.10;39.50;;;1.80;99.90;;;;;;5058808;28;20048;-75
2022/03/26 02:51:24;;;;;;;63.33;35.72;;;1.70;99.90;;;;;;5055791;28;20500;-77
2022/03/26 02:53:51;;;;;;;66.00;35.03;;;1.80;99.90;;;;;;5070696;28;20430;-76
2022/03/26 02:56:20;;;;;;;65.88;35.83;;;1.80;99.90;;;;;;5076059;28;20542;-78
2022/03/26 02:58:49;;;;;;;71.55;36.92;;;1.80;99.90;;;;;;5075856;28;20041;-76
2022/03/26 03:01:16;;;;;;;63.50;34.03;;;1.80;99.90;;;;;;5071665;28;20186;-76
2022/03/26 03:03:44;;;;;;;67.57;35.08;;;1.80;99.90;;;;;;5074515;28;20053;-76
2022/03/26 03:06:11;;;;;;;65.72;34.08;;;1.80;99.90;;;;;;5074266;28;20033;-77
2022/03/26 03:08:39;;;;;;;69.82;36.00;;;1.80;99.90;;;;;;5067507;28;20037;-76
2022/03/26 03:11:07;;;;;;;68.80;38.13;;;1.80;99.90;;;;;;5075954;28;20056;-76
2022/03/26 03:13:39;;;;;;;72.20;37.78;;;1.70;99.90;;;;;;5076353;28;20049;-76
2022/03/26 03:16:06;;;;;;;77.32;41.60;;;1.70;99.90;;;;;;5075742;28;20411;-77
2022/03/26 03:18:34;;;;;;;74.90;40.83;;;1.70;99.90;;;;;;5077963;28;20124;-75
2022/03/26 03:21:01;;;;;;;77.13;39.22;;;1.70;99.90;;;;;;5077345;28;20099;-77
2022/03/26 03:23:29;;;;;;;72.55;37.00;;;1.70;99.90;;;;;;5077877;28;20409;-77
2022/03/26 03:25:56;;;;;;;68.00;36.20;;;1.70;99.90;;;;;;5077647;28;20049;-77
2022/03/26 03:28:25;;;;;;;69.05;33.70;;;1.80;99.90;;;;;;5076258;28;20049;-76
2022/03/26 03:30:54;;;;;;;58.67;32.38;;;1.80;99.90;;;;;;5092617;28;20052;-76
2022/03/26 03:33:22;;;;;;;72.13;36.42;;;1.80;99.90;;;;;;5082821;28;20044;-77
2022/03/26 03:35:50;;;;;;;67.15;36.03;;;1.70;99.90;;;;;;5089908;28;20055;-77
2022/03/26 03:38:18;;;;;;;63.65;34.30;;;1.60;99.90;;;;;;5089800;28;20044;-77
2022/03/26 03:40:45;;;;;;;68.43;34.35;;;1.60;99.90;;;;;;5091388;28;20112;-76
2022/03/26 03:43:13;;;;;;;60.33;32.17;;;1.60;99.90;;;;;;5092092;28;20060;-77
2022/03/26 03:45:40;;;;;;;64.05;34.30;;;1.60;99.90;;;;;;5090880;28;20116;-78
2022/03/26 03:48:09;;;;;;;65.25;36.47;;;1.50;99.90;;;;;;5077588;28;20116;-77
2022/03/26 03:50:37;;;;;;;72.05;36.67;;;1.50;99.90;;;;;;5075721;28;20052;-76
2022/03/26 03:53:04;;;;;;;58.97;30.95;;;1.50;99.90;;;;;;5074733;28;20075;-78
2022/03/26 03:55:32;;;;;;;53.60;29.30;;;1.40;99.90;;;;;;5077753;28;20076;-77
2022/03/26 03:57:59;;;;;;;54.67;29.10;;;1.30;99.90;;;;;;5074821;28;20435;-77
2022/03/26 04:00:27;;;;;;;51.15;28.48;;;1.30;99.90;;;;;;5076249;28;20127;-78
2022/03/26 04:02:54;;;;;;;54.47;29.50;;;1.30;99.90;;;;;;5076647;28;20048;-78
2022/03/26 04:05:24;;;;;;;59.08;31.30;;;1.30;99.90;;;;;;5062635;28;20075;-77
2022/03/26 04:07:51;;;;;;;60.05;32.05;;;1.30;99.90;;;;;;5056056;28;20065;-77
2022/03/26 04:10:18;;;;;;;71.85;35.50;;;1.30;99.90;;;;;;5074750;28;20481;-77
2022/03/26 04:12:46;;;;;;;75.85;37.45;;;1.30;99.90;;;;;;5074987;28;20044;-77
2022/03/26 04:15:15;;;;;;;65.80;32.63;;;1.40;99.90;;;;;;5068859;28;20051;-78
2022/03/26 04:17:43;;;;;;;56.95;29.92;;;1.40;99.90;;;;;;5074846;28;20059;-78
2022/03/26 04:20:11;;;;;;;57.97;29.80;;;1.40;99.90;;;;;;5075039;28;20049;-79
2022/03/26 04:22:41;;;;;;;56.50;28.92;;;1.40;99.90;;;;;;5076048;28;20467;-77
2022/03/26 04:25:09;;;;;;;57.45;29.73;;;1.30;99.90;;;;;;5074533;28;20048;-77
2022/03/26 04:27:37;;;;;;;60.70;32.58;;;1.20;99.90;;;;;;5071178;28;20052;-78
2022/03/26 04:30:05;;;;;;;65.63;34.85;;;1.20;99.90;;;;;;5073730;28;20072;-78
2022/03/26 04:32:33;;;;;;;79.93;39.90;;;1.20;99.90;;;;;;5066991;28;20102;-78
2022/03/26 04:35:00;;;;;;;65.88;34.88;;;1.30;99.90;;;;;;5074328;28;20419;-78
2022/03/26 04:37:28;;;;;;;62.58;31.55;;;1.20;99.90;;;;;;5074038;28;20044;-78
2022/03/26 04:39:57;;;;;;;63.17;32.53;;;1.20;99.90;;;;;;5067093;28;20040;-77
2022/03/26 04:42:25;;;;;;;59.90;32.15;;;1.30;99.90;;;;;;5075327;28;20123;-77
2022/03/26 04:44:52;;;;;;;67.65;34.25;;;1.30;99.90;;;;;;5076288;28;20072;-78
2022/03/26 04:47:20;;;;;;;65.18;35.00;;;1.30;99.90;;;;;;5076657;28;20492;-78
2022/03/26 04:49:47;;;;;;;67.00;36.25;;;1.30;99.90;;;;;;5072623;28;20045;-79
2022/03/26 04:52:15;;;;;;;76.53;41.75;;;1.30;99.90;;;;;;5072042;28;20041;-75
2022/03/26 04:54:43;;;;;;;90.88;46.80;;;1.40;99.90;;;;;;5074776;28;20060;-76
2022/03/26 04:57:13;;;;;;;75.25;43.42;;;1.40;99.90;;;;;;5075300;28;20040;-78
2022/03/26 04:59:41;;;;;;;85.60;48.13;;;1.40;99.90;;;;;;5059565;28;20033;-78
2022/03/26 05:02:08;;;;;;;86.28;46.08;;;1.40;99.90;;;;;;5055576;28;20447;-78
2022/03/26 05:04:36;;;;;;;87.80;44.53;;;1.50;99.90;;;;;;5054402;28;20063;-78
2022/03/26 05:07:45;;;;;;;90.97;51.15;;;1.40;99.90;;;;;;5054657;28;20127;-78
2022/03/26 05:09:51;;;;;;;92.60;50.13;;;1.40;99.90;;;;;;5071153;28;20068;-78
2022/03/26 05:12:20;;;;;;;87.20;44.92;;;1.40;99.90;;;;;;5080784;28;20044;-76
2022/03/26 05:14:48;;;;;;;76.35;40.88;;;1.50;99.90;;;;;;5080920;28;20048;-77
2022/03/26 05:17:15;;;;;;;75.88;42.05;;;1.50;99.90;;;;;;5056160;28;20045;-77
2022/03/26 05:19:43;;;;;;;76.82;40.72;;;1.60;99.90;;;;;;5055955;28;20037;-77
2022/03/26 05:22:10;;;;;;;80.72;43.25;;;1.60;99.90;;;;;;5053917;28;20045;-77
2022/03/26 05:24:38;;;;;;;81.28;42.80;;;1.70;99.90;;;;;;5053538;28;20084;-77
2022/03/26 05:27:05;;;;;;;83.28;43.50;;;1.80;99.90;;;;;;5068206;28;20123;-77
2022/03/26 05:29:34;;;;;;;83.75;43.38;;;1.80;99.90;;;;;;5072473;28;20071;-76
2022/03/26 05:32:04;;;;;;;87.28;44.20;;;1.90;99.90;;;;;;5073849;28;20189;-78
2022/03/26 05:34:31;;;;;;;94.90;48.72;;;2.00;99.90;;;;;;5072797;28;20057;-77
2022/03/26 05:36:59;;;;;;;88.13;45.65;;;2.10;99.90;;;;;;5074713;28;20071;-77
2022/03/26 05:39:26;;;;;;;83.75;43.53;;;2.10;99.90;;;;;;5073089;28;20044;-75
2022/03/26 05:41:54;;;;;;;82.13;42.67;;;2.20;99.90;;;;;;5073590;28;20049;-76
2022/03/26 05:44:22;;;;;;;84.97;43.00;;;2.30;99.90;;;;;;5072050;28;20063;-75
2022/03/26 05:46:51;;;;;;;80.50;42.42;;;2.40;99.90;;;;;;5073167;28;20507;-75
2022/03/26 05:49:19;;;;;;;88.00;46.10;;;2.60;99.90;;;;;;5071470;28;20040;-75
2022/03/26 05:51:46;;;;;;;82.75;43.90;;;2.80;95.20;;;;;;5074249;28;20063;-76
2022/03/26 05:54:14;;;;;;;88.18;44.58;;;3.00;75.00;;;;;;5075762;28;20068;-76
2022/03/26 05:56:51;;;;;;;98.18;50.00;;;3.10;52.70;;;;;;5075511;28;20048;-75
2022/03/26 05:59:21;;;;;;;96.28;49.80;;;3.40;43.40;;;;;;5074070;28;20052;-76
2022/03/26 06:01:50;;;;;;;107.40;52.85;;;3.70;24.70;;;;;;5072297;28;20037;-75
2022/03/26 06:04:18;;;;;;;95.43;48.72;;;4.00;4.70;;;;;;5071904;28;20048;-75
2022/03/26 06:06:47;;;;;;;112.35;55.60;;;4.40;1.00;;;;;;5064853;28;20124;-75
2022/03/26 06:09:14;;;;;;;108.13;55.13;;;4.70;1.00;;;;;;5064732;28;20049;-75
2022/03/26 06:11:42;;;;;;;110.72;62.38;;;4.80;1.00;;;;;;5072477;28;20446;-75
2022/03/26 06:14:09;;;;;;;149.10;84.20;;;5.00;1.00;;;;;;5073283;28;20054;-75
2022/03/26 06:16:37;;;;;;;110.00;63.28;;;5.20;1.00;;;;;;5070374;28;20044;-76
2022/03/26 06:19:06;;;;;;;104.97;58.60;;;5.40;1.00;;;;;;5072643;28;20047;-76
2022/03/26 06:21:34;;;;;;;108.63;59.10;;;5.60;1.00;;;;;;5077545;28;20060;-76
2022/03/26 06:24:02;;;;;;;100.70;55.08;;;5.90;1.00;;;;;;5077636;28;20051;-76
2022/03/26 06:26:30;;;;;;;100.00;57.53;;;5.90;1.00;;;;;;5076076;28;20128;-75
2022/03/26 06:28:58;;;;;;;93.63;50.25;;;6.00;1.00;;;;;;5059528;28;20056;-74
2022/03/26 06:31:26;;;;;;;90.00;48.45;;;6.10;1.00;;;;;;5059161;28;20227;-74
2022/03/26 06:33:53;;;;;;;71.32;38.13;;;6.50;1.00;;;;;;5071047;28;20071;-75
2022/03/26 06:36:22;;;;;;;71.78;38.33;;;6.90;1.00;;;;;;5077653;28;20048;-76
2022/03/26 06:38:50;;;;;;;80.85;42.95;;;7.20;1.00;;;;;;5074742;28;20139;-76
2022/03/26 06:41:17;;;;;;;82.55;44.95;;;7.60;1.00;;;;;;5078162;28;20418;-76
2022/03/26 06:43:46;;;;;;;71.20;42.35;;;7.70;1.00;;;;;;5079293;28;20387;-75
2022/03/26 06:46:13;;;;;;;72.78;42.60;;;7.70;1.00;;;;;;5077569;28;20422;-76
2022/03/26 06:48:41;;;;;;;76.78;43.08;;;7.70;1.00;;;;;;5073323;28;20123;-75
2022/03/26 06:51:08;;;;;;;78.13;43.15;;;7.80;1.00;;;;;;5060481;28;20408;-76
2022/03/26 06:53:37;;;;;;;73.35;40.55;;;8.00;1.00;;;;;;5069081;28;20063;-76
2022/03/26 06:56:07;;;;;;;72.97;41.30;;;8.20;1.00;;;;;;5063432;28;20036;-76
2022/03/26 06:58:34;;;;;;;69.28;41.03;;;8.40;1.00;;;;;;5066258;28;20087;-75
2022/03/26 07:01:03;;;;;;;73.88;39.90;;;8.50;1.00;;;;;;5057644;28;20499;-76
2022/03/26 07:03:31;;;;;;;62.83;35.15;;;8.80;1.00;;;;;;5057629;28;20060;-76
2022/03/26 07:05:58;;;;;;;70.47;36.03;;;9.00;1.00;;;;;;5076388;28;20403;-76
2022/03/26 07:08:27;;;;;;;60.33;34.00;;;9.30;1.00;;;;;;5076219;28;20060;-76
2022/03/26 07:10:59;;;;;;;62.45;35.95;;;9.60;1.00;;;;;;5076767;28;20042;-76
2022/03/26 07:13:26;;;;;;;50.13;30.23;;;9.90;1.00;;;;;;5073577;28;20487;-76
2022/03/26 07:15:54;;;;;;;46.75;26.65;;;9.90;1.00;;;;;;5063066;28;20053;-77
2022/03/26 07:18:22;;;;;;;44.05;26.25;;;9.80;1.00;;;;;;5070262;28;20069;-77
2022/03/26 07:20:49;;;;;;;43.33;26.23;;;9.80;1.00;;;;;;5085573;28;20089;-76
2022/03/26 07:23:17;;;;;;;42.10;25.75;;;10.00;1.00;;;;;;5091986;28;20025;-76
2022/03/26 07:25:44;;;;;;;48.42;26.35;;;10.10;1.00;;;;;;5076838;28;20049;-77
2022/03/26 07:28:14;;;;;;;46.25;26.30;;;10.20;1.00;;;;;;5074506;28;20106;-75
2022/03/26 07:30:42;;;;;;;44.35;25.20;;;10.50;1.00;;;;;;5074212;28;20131;-77
2022/03/26 07:33:09;;;;;;;38.92;24.65;;;10.70;1.00;;;;;;5061769;28;20499;-77
2022/03/26 07:35:36;;;;;;;46.00;26.77;;;11.00;1.00;;;;;;5076874;28;20044;-75
2022/03/26 07:38:04;;;;;;;49.90;26.35;;;11.20;1.00;;;;;;5072379;28;20134;-76
2022/03/26 07:40:32;;;;;;;42.20;26.52;;;11.40;1.00;;;;;;5086177;28;20044;-77
2022/03/26 07:43:00;;;;;;;51.65;25.77;;;11.50;1.00;;;;;;5073425;28;20116;-77
2022/03/26 07:45:30;;;;;;;51.92;27.88;;;11.80;1.00;;;;;;5057497;28;20144;-77
2022/03/26 07:47:59;;;;;;;48.35;29.08;;;12.10;1.00;;;;;;5065807;28;20080;-76
2022/03/26 07:50:31;;;;;;;65.68;29.05;;;12.50;1.00;;;;;;5071698;28;20151;-76
2022/03/26 07:52:58;;;;;;;48.08;28.85;;;12.90;1.00;;;;;;5075213;28;20800;-75
2022/03/26 07:55:26;;;;;;;44.25;26.20;;;13.30;1.00;;;;;;5056129;28;20045;-76
2022/03/26 07:57:53;;;;;;;60.15;26.10;;;13.50;1.00;;;;;;5064989;28;20262;-77
2022/03/26 08:00:21;;;;;;;42.88;23.65;;;13.80;1.00;;;;;;5071644;28;20040;-77
2022/03/26 08:02:51;;;;;;;40.35;23.27;;;14.00;1.00;;;;;;5076076;28;20078;-76
2022/03/26 08:05:18;;;;;;;38.47;23.95;;;14.10;1.00;;;;;;5067867;28;20056;-78
2022/03/26 08:07:46;;;;;;;38.70;23.13;;;14.30;1.00;;;;;;5071217;28;20044;-76
2022/03/26 08:10:13;;;;;;;34.20;22.13;;;14.40;1.00;;;;;;5074156;28;20033;-78
2022/03/26 08:12:41;;;;;;;40.58;22.20;;;14.60;1.00;;;;;;5068836;28;20143;-76
2022/03/26 08:15:09;;;;;;;31.80;20.08;;;14.60;1.00;;;;;;5061691;28;20047;-76
2022/03/26 08:17:37;;;;;;;35.65;20.38;;;14.70;1.00;;;;;;5074904;28;20044;-76
2022/03/26 08:20:07;;;;;;;37.60;22.00;;;14.70;1.00;;;;;;5076864;28;20047;-76
2022/03/26 08:22:35;;;;;;;32.95;20.02;;;14.70;1.00;;;;;;5079608;28;20111;-78
2022/03/26 08:25:03;;;;;;;34.50;22.00;;;14.70;1.00;;;;;;5069526;28;20056;-75
2022/03/26 08:27:30;;;;;;;33.00;19.98;;;14.60;1.00;;;;;;5057067;28;20041;-77
2022/03/26 08:29:57;;;;;;;33.83;18.92;;;14.90;1.00;;;;;;5060818;28;20076;-76
2022/03/26 08:32:25;;;;;;;30.35;18.20;;;15.00;1.00;;;;;;5065961;28;20404;-76
2022/03/26 08:34:52;;;;;;;29.48;16.25;;;15.10;1.00;;;;;;5069305;28;20049;-76
2022/03/26 08:37:22;;;;;;;22.50;13.60;;;15.30;1.00;;;;;;5077930;28;20131;-77
2022/03/26 08:39:49;;;;;;;29.20;14.15;;;15.40;1.00;;;;;;5075367;28;20098;-76
2022/03/26 08:42:17;;;;;;;28.15;14.38;;;15.50;1.00;;;;;;5068701;28;20519;-77
2022/03/26 08:44:44;;;;;;;29.45;15.00;;;15.80;1.00;;;;;;5070341;28;20144;-76
2022/03/26 08:47:12;;;;;;;22.67;14.60;;;15.90;1.00;;;;;;5075680;28;20059;-76
2022/03/26 08:49:40;;;;;;;23.10;13.95;;;16.10;1.00;;;;;;5077746;28;20045;-81
2022/03/26 08:52:07;;;;;;;20.63;12.90;;;16.30;1.00;;;;;;5080509;28;20075;-78
2022/03/26 08:54:36;;;;;;;23.98;13.98;;;16.30;1.00;;;;;;5072813;28;20045;-76
2022/03/26 08:57:04;;;;;;;29.85;14.50;;;16.40;1.00;;;;;;5072254;28;20059;-77
2022/03/26 08:59:32;;;;;;;26.27;16.58;;;16.40;1.00;;;;;;5074726;28;20040;-77
2022/03/26 09:01:59;;;;;;;25.00;12.95;;;16.60;1.00;;;;;;5064154;28;20040;-77
2022/03/26 09:04:27;;;;;;;23.85;12.27;;;16.60;1.00;;;;;;5064125;28;20128;-76
2022/03/26 09:06:54;;;;;;;23.58;10.00;;;16.70;1.00;;;;;;5063691;28;20045;-76
2022/03/26 09:09:22;;;;;;;19.67;11.45;;;16.80;1.00;;;;;;5064954;28;20131;-76
2022/03/26 09:11:50;;;;;;;17.90;11.65;;;16.90;1.00;;;;;;5072609;28;20098;-78
2022/03/26 09:14:18;;;;;;;25.92;22.50;;;17.00;1.00;;;;;;5073839;28;20051;-74
2022/03/26 09:16:45;;;;;;;18.50;10.35;;;17.10;1.00;;;;;;5064385;28;20055;-78
2022/03/26 09:19:13;;;;;;;21.15;9.95;;;17.10;1.00;;;;;;5056249;28;20064;-75
2022/03/26 09:21:40;;;;;;;17.17;9.38;;;17.20;1.00;;;;;;5055489;28;20044;-75
2022/03/26 09:24:08;;;;;;;16.02;9.60;;;17.30;1.00;;;;;;5066970;28;20515;-76
2022/03/26 09:26:35;;;;;;;17.58;9.43;;;17.30;1.00;;;;;;5065578;28;20503;-75
2022/03/26 09:29:04;;;;;;;20.35;11.20;;;17.40;1.00;;;;;;5071883;28;20048;-76
2022/03/26 09:31:31;;;;;;;23.10;13.95;;;17.50;1.00;;;;;;5076860;28;20399;-77
2022/03/26 09:34:00;;;;;;;19.30;12.20;;;17.50;1.00;;;;;;5084658;28;20108;-77
2022/03/26 09:36:28;;;;;;;21.02;12.18;;;17.60;1.00;;;;;;5081840;28;20492;-76
2022/03/26 09:38:55;;;;;;;19.13;11.93;;;17.70;1.00;;;;;;5071511;28;20053;-77
2022/03/26 09:41:23;;;;;;;28.27;14.38;;;17.60;1.00;;;;;;5072924;28;20047;-75
2022/03/26 09:43:51;;;;;;;25.88;15.50;;;17.60;1.00;;;;;;5072567;28;20048;-76
2022/03/26 09:46:23;;;;;;;27.35;14.88;;;17.60;1.00;;;;;;5056487;28;20072;-76
2022/03/26 09:48:51;;;;;;;22.35;13.02;;;17.80;1.00;;;;;;5053763;28;20386;-75
2022/03/26 09:51:22;;;;;;;24.40;12.45;;;17.90;1.00;;;;;;5055460;28;20400;-76
2022/03/26 09:53:52;;;;;;;23.90;13.00;;;17.90;1.00;;;;;;5074889;28;20420;-75
2022/03/26 09:56:20;;;;;;;17.00;12.88;;;18.00;1.00;;;;;;5078978;28;20113;-77
2022/03/26 09:58:47;;;;;;;32.78;19.48;;;18.10;1.00;;;;;;5080037;28;20048;-75
2022/03/26 10:01:15;;;;;;;19.52;11.77;;;18.20;1.00;;;;;;5075897;28;20159;-75
2022/03/26 10:04:10;;;;;;;20.40;12.68;;;18.30;1.00;;;;;;5065776;28;20049;-76
2022/03/26 10:06:46;;;;;;;22.35;12.55;;;18.40;1.00;;;;;;5064920;28;20059;-77
2022/03/26 10:09:13;;;;;;;19.50;11.02;;;18.30;1.00;;;;;;5076620;28;20059;-76
2022/03/26 10:11:42;;;;;;;23.13;11.73;;;18.40;1.00;;;;;;5088818;28;20211;-77
2022/03/26 10:14:10;;;;;;;25.98;12.45;;;18.50;1.00;;;;;;5079316;28;20438;-78
2022/03/26 10:16:38;;;;;;;19.90;10.30;;;18.60;1.00;;;;;;5063626;28;20049;-77
2022/03/26 10:19:07;;;;;;;24.05;13.07;;;18.50;1.00;;;;;;5076772;28;20055;-74
2022/03/26 10:21:34;;;;;;;25.00;12.10;;;18.50;1.00;;;;;;5057106;28;20049;-76
2022/03/26 10:24:02;;;;;;;19.92;10.30;;;18.60;1.00;;;;;;5057581;28;20472;-76
2022/03/26 10:26:31;;;;;;;17.95;10.15;;;18.50;1.00;;;;;;5059648;28;20407;-76
2022/03/26 10:29:00;;;;;;;15.40;8.77;;;18.40;1.00;;;;;;5057383;28;20048;-75
2022/03/26 10:34:19;;;;;;;14.38;8.88;;;18.40;1.00;;;;;;5074391;28;20036;-76
2022/03/26 10:36:48;;;;;;;15.38;9.07;;;18.60;1.00;;;;;;5073039;28;20052;-76
2022/03/26 10:39:17;;;;;;;17.15;8.13;;;18.60;1.00;;;;;;5072291;28;20052;-76
2022/03/26 10:41:45;;;;;;;19.25;10.32;;;18.60;1.00;;;;;;5076384;28;20535;-74
2022/03/26 10:44:16;;;;;;;17.92;8.48;;;18.70;1.00;;;;;;5076520;28;20044;-77
2022/03/26 10:46:48;;;;;;;16.17;9.15;;;18.60;1.00;;;;;;5075539;28;20086;-76
2022/03/26 10:49:27;;;;;;;23.20;10.07;;;18.60;1.00;;;;;;5080892;28;20104;-75
2022/03/26 10:51:55;;;;;;;17.90;9.85;;;18.60;1.00;;;;;;5086073;28;20051;-76
2022/03/26 10:54:30;;;;;;;20.23;8.65;;;18.80;1.00;;;;;;5082542;28;20044;-76
2022/03/26 10:56:59;;;;;;;17.70;8.05;;;18.90;1.00;;;;;;5084454;28;20044;-76
2022/03/26 10:59:27;;;;;;;15.90;7.47;;;18.90;1.00;;;;;;5078546;28;20036;-76
2022/03/26 11:01:55;;;;;;;11.98;6.53;;;18.90;1.00;;;;;;5076925;28;20041;-75
2022/03/26 11:04:24;;;;;;;10.75;6.68;;;18.70;1.00;;;;;;5076902;28;20051;-76
2022/03/26 11:06:52;;;;;;;14.60;8.25;;;18.60;1.00;;;;;;5078676;28;20044;-77
2022/03/26 11:09:20;;;;;;;11.68;6.35;;;18.70;1.00;;;;;;5079134;28;20045;-76
2022/03/26 11:11:50;;;;;;;19.00;9.40;;;18.60;1.00;;;;;;5078653;28;20047;-78
2022/03/26 11:14:23;;;;;;;25.33;14.82;;;18.70;1.00;;;;;;5077096;28;20048;-76
2022/03/26 11:17:01;;;;;;;19.30;8.88;;;18.80;1.00;;;;;;5057279;28;20053;-75
2022/03/26 11:19:38;;;;;;;16.60;7.72;;;18.80;1.00;;;;;;5057033;28;20051;-76
2022/03/26 11:22:35;;;;;;;15.48;6.80;;;18.70;1.00;;;;;;5058163;28;20045;-77
2022/03/26 11:25:29;;;;;;;11.82;6.95;;;18.70;1.00;;;;;;5056560;28;20151;-77
2022/03/26 11:28:07;;;;;;;15.20;8.82;;;18.70;1.00;;;;;;5058853;28;20057;-75
2022/03/26 11:30:42;;;;;;;17.35;10.00;;;18.80;1.00;;;;;;5058980;28;20128;-76
2022/03/26 11:33:11;;;;;;;25.48;15.30;;;18.90;1.00;;;;;;5058600;28;20049;-76
2022/03/26 11:35:58;;;;;;;15.80;8.10;;;19.10;1.00;;;;;;5058035;28;20123;-76
2022/03/26 11:38:28;;;;;;;12.95;6.85;;;19.00;1.00;;;;;;5096472;22;20071;-80
2022/03/26 11:40:57;;;;;;;16.90;8.38;;;18.80;1.00;;;;;;5079454;28;20114;-78
2022/03/26 11:43:55;;;;;;;14.30;7.85;;;18.80;1.00;;;;;;5072613;28;20045;-81
2022/03/26 11:52:26;;;;;;;14.63;9.23;;;18.90;1.00;;;;;;5066614;28;20040;-81
2022/03/26 11:55:01;;;;;;;15.25;9.02;;;18.80;1.00;;;;;;5066414;28;20072;-79
2022/03/26 11:57:30;;;;;;;16.80;8.23;;;18.90;1.00;;;;;;5068251;28;20056;-78
2022/03/26 12:00:00;;;;;;;12.73;7.55;;;18.90;1.00;;;;;;5076466;28;20097;-79
2022/03/26 12:02:29;;;;;;;11.93;6.43;;;19.00;1.00;;;;;;5079218;28;20025;-75
2022/03/26 12:04:58;;;;;;;10.48;6.85;;;19.10;1.00;;;;;;5078212;28;20115;-81
2022/03/26 12:07:30;;;;;;;10.85;6.55;;;19.20;1.00;;;;;;5065079;28;20134;-81
2022/03/26 12:10:10;;;;;;;13.63;6.82;;;19.10;1.00;;;;;;5081695;28;20059;-80
2022/03/26 12:12:49;;;;;;;12.00;7.00;;;19.30;1.00;;;;;;5084154;28;20064;-80
2022/03/26 12:15:31;;;;;;;17.75;8.88;;;19.30;1.00;;;;;;5084050;28;20043;-80
2022/03/26 12:18:13;;;;;;;9.40;6.05;;;19.30;1.00;;;;;;5085812;28;20056;-80
2022/03/26 12:20:42;;;;;;;18.55;7.88;;;19.30;1.00;;;;;;5083920;28;20052;-81
2022/03/26 12:23:13;;;;;;;12.98;6.85;;;19.30;1.00;;;;;;5083925;28;20115;-80
2022/03/26 12:25:50;;;;;;;12.63;8.23;;;19.30;1.00;;;;;;5083360;28;20403;-79
2022/03/26 12:28:20;;;;;;;12.57;6.80;;;19.40;1.00;;;;;;5082623;28;20036;-79
2022/03/26 12:30:52;;;;;;;12.38;7.15;;;19.30;1.00;;;;;;5082327;28;20119;-79
2022/03/26 12:33:20;;;;;;;11.60;7.25;;;19.30;1.00;;;;;;5082431;28;20039;-79
2022/03/26 12:35:49;;;;;;;18.05;6.30;;;19.40;1.00;;;;;;5082991;28;20045;-79
2022/03/26 12:38:19;;;;;;;13.10;7.50;;;19.30;1.00;;;;;;5081364;28;20062;-80
2022/03/26 12:40:52;;;;;;;18.52;6.75;;;19.40;1.00;;;;;;5083341;28;20060;-78
2022/03/26 12:43:21;;;;;;;11.73;6.32;;;19.40;1.00;;;;;;5081019;28;20068;-78
2022/03/26 12:45:49;;;;;;;13.75;7.10;;;19.50;1.00;;;;;;5083615;28;20079;-79
2022/03/26 12:48:16;;;;;;;16.98;7.25;;;19.60;1.00;;;;;;5082570;28;20234;-80
2022/03/26 12:50:46;;;;;;;13.40;7.00;;;19.60;1.00;;;;;;5082473;28;20464;-78
2022/03/26 12:53:15;;;;;;;13.23;7.30;;;19.60;1.00;;;;;;5080803;28;20051;-78
2022/03/26 12:55:52;;;;;;;12.38;6.57;;;19.60;1.00;;;;;;5084788;28;20097;-78
2022/03/26 13:01:06;;;;;;;12.35;6.97;;;19.60;1.00;;;;;;5087096;28;20093;-79